sensor_id;sensor_type;location;lat;lon;timestamp;P1;durP1;ratioP1;P2;durP2;ratioP2
25627;SDS011;40915;50.826;4.356;2022-11-12T00:00:42;9.20;;;6.10;;
25627;SDS011;40915;50.826;4.356;2022-11-12T00:03:07;8.93;;;6.10;;
25627;SDS011;40915;50.826;4.356;2022-11-12T00:05:34;10.97;;;5.87;;
25627;SDS011;40915;50.826;4.356;2022-11-12T00:08:00;8.17;;;6.33;;
25627;SDS011;40915;50.826;4.356;2022-11-12T00:10:26;9.20;;;6.33;;
25627;SDS011;40915;50.826;4.356;2022-11-12T00:12:53;8.63;;;6.40;;
25627;SDS011;40915;50.826;4.356;2022-11-12T00:15:19;10.10;;;6.33;;
25627;SDS011;40915;50.826;4.356;2022-11-12T00:17:46;8.97;;;5.90;;
25627;SDS011;40915;50.826;4.356;2022-11-12T00:20:12;8.13;;;5.97;;
25627;SDS011;40915;50.826;4.356;2022-11-12T00:22:39;6.40;;;5.70;;
25627;SDS011;40915;50.826;4.356;2022-11-12T00:25:05;13.67;;;6.13;;
25627;SDS011;40915;50.826;4.356;2022-11-12T00:27:32;8.53;;;5.90;;
25627;SDS011;40915;50.826;4.356;2022-11-12T00:29:58;7.30;;;5.77;;
25627;SDS011;40915;50.826;4.356;2022-11-12T00:32:25;10.80;;;5.53;;
25627;SDS011;40915;50.826;4.356;2022-11-12T00:34:51;9.13;;;5.47;;
25627;SDS011;40915;50.826;4.356;2022-11-12T00:37:18;7.87;;;5.53;;
25627;SDS011;40915;50.826;4.356;2022-11-12T00:39:47;7.53;;;4.83;;
25627;SDS011;40915;50.826;4.356;2022-11-12T00:42:13;7.90;;;5.10;;
25627;SDS011;40915;50.826;4.356;2022-11-12T00:44:39;6.60;;;5.10;;
25627;SDS011;40915;50.826;4.356;2022-11-12T00:47:06;7.33;;;4.97;;
25627;SDS011;40915;50.826;4.356;2022-11-12T00:49:32;10.37;;;5.30;;
25627;SDS011;40915;50.826;4.356;2022-11-12T00:51:58;9.00;;;5.33;;
25627;SDS011;40915;50.826;4.356;2022-11-12T00:54:25;9.47;;;5.70;;
25627;SDS011;40915;50.826;4.356;2022-11-12T00:56:51;9.93;;;5.60;;
25627;SDS011;40915;50.826;4.356;2022-11-12T00:59:18;10.00;;;5.23;;
25627;SDS011;40915;50.826;4.356;2022-11-12T01:01:44;8.80;;;5.23;;
25627;SDS011;40915;50.826;4.356;2022-11-12T01:04:11;7.20;;;5.03;;
25627;SDS011;40915;50.826;4.356;2022-11-12T01:06:38;5.37;;;4.13;;
25627;SDS011;40915;50.826;4.356;2022-11-12T01:09:07;5.83;;;4.57;;
25627;SDS011;40915;50.826;4.356;2022-11-12T01:11:34;5.83;;;4.70;;
25627;SDS011;40915;50.826;4.356;2022-11-12T01:14:02;8.53;;;4.90;;
25627;SDS011;40915;50.826;4.356;2022-11-12T01:16:30;4.83;;;4.30;;
25627;SDS011;40915;50.826;4.356;2022-11-12T01:18:58;7.10;;;5.22;;
25627;SDS011;40915;50.826;4.356;2022-11-12T01:21:25;7.70;;;4.90;;
25627;SDS011;40915;50.826;4.356;2022-11-12T01:23:52;7.10;;;4.63;;
25627;SDS011;40915;50.826;4.356;2022-11-12T01:26:19;6.77;;;5.50;;
25627;SDS011;40915;50.826;4.356;2022-11-12T01:28:46;6.90;;;5.13;;
25627;SDS011;40915;50.826;4.356;2022-11-12T01:33:39;6.63;;;4.80;;
25627;SDS011;40915;50.826;4.356;2022-11-12T01:36:06;5.93;;;4.90;;
25627;SDS011;40915;50.826;4.356;2022-11-12T01:38:33;5.63;;;4.87;;
25627;SDS011;40915;50.826;4.356;2022-11-12T01:41:00;7.53;;;5.40;;
25627;SDS011;40915;50.826;4.356;2022-11-12T01:43:26;10.80;;;5.00;;
25627;SDS011;40915;50.826;4.356;2022-11-12T01:45:52;6.20;;;5.00;;
25627;SDS011;40915;50.826;4.356;2022-11-12T01:48:26;6.30;;;5.07;;
25627;SDS011;40915;50.826;4.356;2022-11-12T01:50:53;8.13;;;5.37;;
25627;SDS011;40915;50.826;4.356;2022-11-12T01:53:20;6.73;;;4.77;;
25627;SDS011;40915;50.826;4.356;2022-11-12T01:55:48;7.23;;;5.60;;
25627;SDS011;40915;50.826;4.356;2022-11-12T01:58:15;8.20;;;5.50;;
25627;SDS011;40915;50.826;4.356;2022-11-12T02:00:42;6.37;;;5.13;;
25627;SDS011;40915;50.826;4.356;2022-11-12T02:03:09;6.30;;;4.40;;
25627;SDS011;40915;50.826;4.356;2022-11-12T02:05:37;5.83;;;5.10;;
25627;SDS011;40915;50.826;4.356;2022-11-12T02:08:05;7.33;;;5.03;;
25627;SDS011;40915;50.826;4.356;2022-11-12T02:10:31;7.93;;;6.30;;
25627;SDS011;40915;50.826;4.356;2022-11-12T02:12:59;8.87;;;5.70;;
25627;SDS011;40915;50.826;4.356;2022-11-12T02:15:44;8.13;;;5.47;;
25627;SDS011;40915;50.826;4.356;2022-11-12T02:18:10;7.37;;;5.50;;
25627;SDS011;40915;50.826;4.356;2022-11-12T02:20:36;7.73;;;4.90;;
25627;SDS011;40915;50.826;4.356;2022-11-12T02:23:03;7.93;;;4.97;;
25627;SDS011;40915;50.826;4.356;2022-11-12T02:25:30;6.07;;;4.70;;
25627;SDS011;40915;50.826;4.356;2022-11-12T02:27:57;9.10;;;5.33;;
25627;SDS011;40915;50.826;4.356;2022-11-12T02:30:39;6.47;;;4.77;;
25627;SDS011;40915;50.826;4.356;2022-11-12T02:33:06;6.57;;;4.30;;
25627;SDS011;40915;50.826;4.356;2022-11-12T02:35:32;8.07;;;4.87;;
25627;SDS011;40915;50.826;4.356;2022-11-12T02:37:59;5.67;;;4.50;;
25627;SDS011;40915;50.826;4.356;2022-11-12T02:40:25;8.10;;;4.40;;
25627;SDS011;40915;50.826;4.356;2022-11-12T02:42:52;6.10;;;3.97;;
25627;SDS011;40915;50.826;4.356;2022-11-12T02:45:18;4.93;;;4.07;;
25627;SDS011;40915;50.826;4.356;2022-11-12T02:47:45;4.43;;;3.40;;
25627;SDS011;40915;50.826;4.356;2022-11-12T02:50:12;6.30;;;3.80;;
25627;SDS011;40915;50.826;4.356;2022-11-12T02:52:38;4.23;;;3.40;;
25627;SDS011;40915;50.826;4.356;2022-11-12T02:55:05;4.37;;;3.07;;
25627;SDS011;40915;50.826;4.356;2022-11-12T02:57:32;4.77;;;3.63;;
25627;SDS011;40915;50.826;4.356;2022-11-12T02:59:58;3.67;;;3.30;;
25627;SDS011;40915;50.826;4.356;2022-11-12T03:02:25;4.00;;;3.50;;
25627;SDS011;40915;50.826;4.356;2022-11-12T03:04:51;7.13;;;3.77;;
25627;SDS011;40915;50.826;4.356;2022-11-12T03:07:18;8.67;;;4.20;;
25627;SDS011;40915;50.826;4.356;2022-11-12T03:09:47;6.03;;;3.70;;
25627;SDS011;40915;50.826;4.356;2022-11-12T03:12:14;7.07;;;4.00;;
25627;SDS011;40915;50.826;4.356;2022-11-12T03:14:44;6.57;;;4.27;;
25627;SDS011;40915;50.826;4.356;2022-11-12T03:17:10;6.80;;;4.43;;
25627;SDS011;40915;50.826;4.356;2022-11-12T03:19:36;5.83;;;3.90;;
25627;SDS011;40915;50.826;4.356;2022-11-12T03:22:02;5.20;;;4.00;;
25627;SDS011;40915;50.826;4.356;2022-11-12T03:24:28;5.80;;;3.50;;
25627;SDS011;40915;50.826;4.356;2022-11-12T03:26:55;4.47;;;3.60;;
25627;SDS011;40915;50.826;4.356;2022-11-12T03:29:21;5.93;;;3.30;;
25627;SDS011;40915;50.826;4.356;2022-11-12T03:31:47;4.23;;;3.50;;
25627;SDS011;40915;50.826;4.356;2022-11-12T03:34:14;6.00;;;4.13;;
25627;SDS011;40915;50.826;4.356;2022-11-12T03:36:40;6.70;;;4.43;;
25627;SDS011;40915;50.826;4.356;2022-11-12T03:39:06;4.63;;;3.90;;
25627;SDS011;40915;50.826;4.356;2022-11-12T03:41:32;6.90;;;4.20;;
25627;SDS011;40915;50.826;4.356;2022-11-12T03:43:59;6.30;;;3.60;;
25627;SDS011;40915;50.826;4.356;2022-11-12T03:46:25;4.60;;;3.90;;
25627;SDS011;40915;50.826;4.356;2022-11-12T03:48:51;4.60;;;3.47;;
25627;SDS011;40915;50.826;4.356;2022-11-12T03:51:17;4.47;;;3.60;;
25627;SDS011;40915;50.826;4.356;2022-11-12T03:53:45;5.73;;;3.87;;
25627;SDS011;40915;50.826;4.356;2022-11-12T03:56:11;5.27;;;3.87;;
25627;SDS011;40915;50.826;4.356;2022-11-12T03:58:37;4.87;;;4.00;;
25627;SDS011;40915;50.826;4.356;2022-11-12T04:01:03;5.37;;;4.43;;
25627;SDS011;40915;50.826;4.356;2022-11-12T04:03:28;7.50;;;4.93;;
25627;SDS011;40915;50.826;4.356;2022-11-12T04:05:54;6.17;;;5.03;;
25627;SDS011;40915;50.826;4.356;2022-11-12T04:08:38;7.53;;;4.77;;
25627;SDS011;40915;50.826;4.356;2022-11-12T04:13:37;7.00;;;5.30;;
25627;SDS011;40915;50.826;4.356;2022-11-12T04:16:09;6.83;;;4.67;;
25627;SDS011;40915;50.826;4.356;2022-11-12T04:18:56;5.87;;;4.47;;
25627;SDS011;40915;50.826;4.356;2022-11-12T04:21:47;5.97;;;4.70;;
25627;SDS011;40915;50.826;4.356;2022-11-12T04:24:40;6.87;;;4.87;;
25627;SDS011;40915;50.826;4.356;2022-11-12T04:27:26;5.43;;;4.40;;
25627;SDS011;40915;50.826;4.356;2022-11-12T04:29:53;6.20;;;4.67;;
25627;SDS011;40915;50.826;4.356;2022-11-12T04:32:38;6.13;;;4.50;;
25627;SDS011;40915;50.826;4.356;2022-11-12T04:35:06;6.77;;;4.60;;
25627;SDS011;40915;50.826;4.356;2022-11-12T04:37:33;6.50;;;4.53;;
25627;SDS011;40915;50.826;4.356;2022-11-12T04:40:10;6.60;;;4.70;;
25627;SDS011;40915;50.826;4.356;2022-11-12T04:42:55;5.23;;;4.07;;
25627;SDS011;40915;50.826;4.356;2022-11-12T04:45:40;7.63;;;4.43;;
25627;SDS011;40915;50.826;4.356;2022-11-12T04:48:08;10.73;;;5.30;;
25627;SDS011;40915;50.826;4.356;2022-11-12T04:50:34;8.97;;;4.47;;
25627;SDS011;40915;50.826;4.356;2022-11-12T04:53:01;6.93;;;4.53;;
25627;SDS011;40915;50.826;4.356;2022-11-12T04:55:28;7.20;;;4.47;;
25627;SDS011;40915;50.826;4.356;2022-11-12T04:57:55;8.77;;;4.83;;
25627;SDS011;40915;50.826;4.356;2022-11-12T05:00:21;7.47;;;4.70;;
25627;SDS011;40915;50.826;4.356;2022-11-12T05:02:48;5.73;;;4.13;;
25627;SDS011;40915;50.826;4.356;2022-11-12T05:05:15;6.73;;;4.20;;
25627;SDS011;40915;50.826;4.356;2022-11-12T05:07:42;5.77;;;4.07;;
25627;SDS011;40915;50.826;4.356;2022-11-12T05:10:09;5.37;;;3.87;;
25627;SDS011;40915;50.826;4.356;2022-11-12T05:12:36;6.47;;;4.00;;
25627;SDS011;40915;50.826;4.356;2022-11-12T05:15:03;8.07;;;4.63;;
25627;SDS011;40915;50.826;4.356;2022-11-12T05:17:30;7.53;;;4.30;;
25627;SDS011;40915;50.826;4.356;2022-11-12T05:19:57;7.70;;;3.90;;
25627;SDS011;40915;50.826;4.356;2022-11-12T05:22:24;6.00;;;3.40;;
25627;SDS011;40915;50.826;4.356;2022-11-12T05:24:51;6.70;;;4.50;;
25627;SDS011;40915;50.826;4.356;2022-11-12T05:27:18;5.97;;;4.43;;
25627;SDS011;40915;50.826;4.356;2022-11-12T05:29:45;5.47;;;4.13;;
25627;SDS011;40915;50.826;4.356;2022-11-12T05:32:11;6.47;;;3.93;;
25627;SDS011;40915;50.826;4.356;2022-11-12T05:34:39;7.13;;;4.07;;
25627;SDS011;40915;50.826;4.356;2022-11-12T05:37:05;9.67;;;4.23;;
25627;SDS011;40915;50.826;4.356;2022-11-12T05:39:32;6.63;;;4.50;;
25627;SDS011;40915;50.826;4.356;2022-11-12T05:41:57;6.87;;;4.77;;
25627;SDS011;40915;50.826;4.356;2022-11-12T05:44:23;6.47;;;4.37;;
25627;SDS011;40915;50.826;4.356;2022-11-12T05:46:49;7.00;;;4.63;;
25627;SDS011;40915;50.826;4.356;2022-11-12T05:49:15;8.47;;;4.60;;
25627;SDS011;40915;50.826;4.356;2022-11-12T05:51:41;9.33;;;4.67;;
25627;SDS011;40915;50.826;4.356;2022-11-12T05:54:07;9.87;;;5.10;;
25627;SDS011;40915;50.826;4.356;2022-11-12T05:56:33;8.43;;;4.73;;
25627;SDS011;40915;50.826;4.356;2022-11-12T05:59:00;6.30;;;3.93;;
25627;SDS011;40915;50.826;4.356;2022-11-12T06:01:26;6.70;;;4.10;;
25627;SDS011;40915;50.826;4.356;2022-11-12T06:03:52;10.57;;;4.80;;
25627;SDS011;40915;50.826;4.356;2022-11-12T06:06:17;15.87;;;5.47;;
25627;SDS011;40915;50.826;4.356;2022-11-12T06:08:43;8.10;;;4.40;;
25627;SDS011;40915;50.826;4.356;2022-11-12T06:11:09;6.13;;;4.40;;
25627;SDS011;40915;50.826;4.356;2022-11-12T06:13:34;14.23;;;5.00;;
25627;SDS011;40915;50.826;4.356;2022-11-12T06:16:00;9.13;;;5.37;;
25627;SDS011;40915;50.826;4.356;2022-11-12T06:18:26;9.37;;;5.77;;
25627;SDS011;40915;50.826;4.356;2022-11-12T06:20:52;10.80;;;4.93;;
25627;SDS011;40915;50.826;4.356;2022-11-12T06:23:36;9.60;;;5.03;;
25627;SDS011;40915;50.826;4.356;2022-11-12T06:26:01;7.53;;;5.43;;
25627;SDS011;40915;50.826;4.356;2022-11-12T06:28:27;9.83;;;5.13;;
25627;SDS011;40915;50.826;4.356;2022-11-12T06:30:53;9.23;;;5.50;;
25627;SDS011;40915;50.826;4.356;2022-11-12T06:33:20;11.53;;;6.33;;
25627;SDS011;40915;50.826;4.356;2022-11-12T06:35:45;9.73;;;5.60;;
25627;SDS011;40915;50.826;4.356;2022-11-12T06:38:11;11.17;;;6.53;;
25627;SDS011;40915;50.826;4.356;2022-11-12T06:40:36;10.30;;;6.13;;
25627;SDS011;40915;50.826;4.356;2022-11-12T06:43:02;8.83;;;5.73;;
25627;SDS011;40915;50.826;4.356;2022-11-12T06:45:28;10.30;;;5.07;;
25627;SDS011;40915;50.826;4.356;2022-11-12T06:47:57;7.47;;;5.70;;
25627;SDS011;40915;50.826;4.356;2022-11-12T06:50:23;12.60;;;5.50;;
25627;SDS011;40915;50.826;4.356;2022-11-12T06:52:49;7.43;;;5.27;;
25627;SDS011;40915;50.826;4.356;2022-11-12T06:55:14;6.30;;;5.07;;
25627;SDS011;40915;50.826;4.356;2022-11-12T06:57:40;7.40;;;5.47;;
25627;SDS011;40915;50.826;4.356;2022-11-12T07:00:07;6.17;;;5.37;;
25627;SDS011;40915;50.826;4.356;2022-11-12T07:02:35;10.07;;;6.13;;
25627;SDS011;40915;50.826;4.356;2022-11-12T07:05:01;7.90;;;5.93;;
25627;SDS011;40915;50.826;4.356;2022-11-12T07:07:27;9.43;;;5.73;;
25627;SDS011;40915;50.826;4.356;2022-11-12T07:09:53;9.17;;;5.37;;
25627;SDS011;40915;50.826;4.356;2022-11-12T07:12:19;10.73;;;5.67;;
25627;SDS011;40915;50.826;4.356;2022-11-12T07:14:44;6.53;;;5.00;;
25627;SDS011;40915;50.826;4.356;2022-11-12T07:17:10;10.27;;;5.97;;
25627;SDS011;40915;50.826;4.356;2022-11-12T07:19:36;7.53;;;5.90;;
25627;SDS011;40915;50.826;4.356;2022-11-12T07:22:01;7.67;;;5.90;;
25627;SDS011;40915;50.826;4.356;2022-11-12T07:24:27;7.97;;;5.97;;
25627;SDS011;40915;50.826;4.356;2022-11-12T07:26:52;9.77;;;6.10;;
25627;SDS011;40915;50.826;4.356;2022-11-12T07:29:18;7.90;;;5.77;;
25627;SDS011;40915;50.826;4.356;2022-11-12T07:31:44;9.10;;;5.80;;
25627;SDS011;40915;50.826;4.356;2022-11-12T07:34:09;15.33;;;7.00;;
25627;SDS011;40915;50.826;4.356;2022-11-12T07:36:35;25.50;;;8.03;;
25627;SDS011;40915;50.826;4.356;2022-11-12T07:39:00;11.57;;;6.90;;
25627;SDS011;40915;50.826;4.356;2022-11-12T07:41:26;9.97;;;6.07;;
25627;SDS011;40915;50.826;4.356;2022-11-12T07:43:52;7.37;;;5.50;;
25627;SDS011;40915;50.826;4.356;2022-11-12T07:46:19;10.00;;;5.90;;
25627;SDS011;40915;50.826;4.356;2022-11-12T07:48:44;12.20;;;6.40;;
25627;SDS011;40915;50.826;4.356;2022-11-12T07:51:15;11.50;;;6.50;;
25627;SDS011;40915;50.826;4.356;2022-11-12T07:53:48;8.07;;;6.33;;
25627;SDS011;40915;50.826;4.356;2022-11-12T07:56:15;6.90;;;5.90;;
25627;SDS011;40915;50.826;4.356;2022-11-12T07:58:43;7.33;;;5.80;;
25627;SDS011;40915;50.826;4.356;2022-11-12T08:01:11;10.37;;;5.97;;
25627;SDS011;40915;50.826;4.356;2022-11-12T08:03:52;9.07;;;6.13;;
25627;SDS011;40915;50.826;4.356;2022-11-12T08:06:18;9.10;;;5.90;;
25627;SDS011;40915;50.826;4.356;2022-11-12T08:08:55;8.17;;;5.33;;
25627;SDS011;40915;50.826;4.356;2022-11-12T08:11:22;7.60;;;5.50;;
25627;SDS011;40915;50.826;4.356;2022-11-12T08:13:48;8.47;;;6.23;;
25627;SDS011;40915;50.826;4.356;2022-11-12T08:16:15;9.13;;;5.73;;
25627;SDS011;40915;50.826;4.356;2022-11-12T08:18:44;8.40;;;6.03;;
25627;SDS011;40915;50.826;4.356;2022-11-12T08:21:11;15.13;;;6.20;;
25627;SDS011;40915;50.826;4.356;2022-11-12T08:23:39;7.57;;;5.43;;
25627;SDS011;40915;50.826;4.356;2022-11-12T08:26:07;8.67;;;5.90;;
25627;SDS011;40915;50.826;4.356;2022-11-12T08:28:35;8.00;;;4.80;;
25627;SDS011;40915;50.826;4.356;2022-11-12T08:31:06;6.83;;;5.20;;
25627;SDS011;40915;50.826;4.356;2022-11-12T08:33:36;8.30;;;5.20;;
25627;SDS011;40915;50.826;4.356;2022-11-12T08:36:03;6.50;;;4.50;;
25627;SDS011;40915;50.826;4.356;2022-11-12T08:38:29;6.97;;;4.77;;
25627;SDS011;40915;50.826;4.356;2022-11-12T08:40:59;8.40;;;5.00;;
25627;SDS011;40915;50.826;4.356;2022-11-12T08:43:29;6.17;;;4.17;;
25627;SDS011;40915;50.826;4.356;2022-11-12T08:45:56;4.90;;;4.10;;
25627;SDS011;40915;50.826;4.356;2022-11-12T08:48:23;10.37;;;4.17;;
25627;SDS011;40915;50.826;4.356;2022-11-12T08:50:50;8.43;;;3.77;;
25627;SDS011;40915;50.826;4.356;2022-11-12T08:53:15;4.83;;;3.53;;
25627;SDS011;40915;50.826;4.356;2022-11-12T08:55:41;7.13;;;3.40;;
25627;SDS011;40915;50.826;4.356;2022-11-12T08:58:07;5.27;;;3.30;;
25627;SDS011;40915;50.826;4.356;2022-11-12T09:00:43;4.32;;;2.92;;
25627;SDS011;40915;50.826;4.356;2022-11-12T09:03:12;7.68;;;3.47;;
25627;SDS011;40915;50.826;4.356;2022-11-12T09:05:39;7.70;;;3.40;;
25627;SDS011;40915;50.826;4.356;2022-11-12T09:08:06;5.22;;;2.80;;
25627;SDS011;40915;50.826;4.356;2022-11-12T09:10:34;7.05;;;3.38;;
25627;SDS011;40915;50.826;4.356;2022-11-12T09:13:00;4.63;;;3.00;;
25627;SDS011;40915;50.826;4.356;2022-11-12T09:15:27;4.43;;;3.00;;
25627;SDS011;40915;50.826;4.356;2022-11-12T09:17:57;3.25;;;2.60;;
25627;SDS011;40915;50.826;4.356;2022-11-12T09:20:24;8.80;;;3.35;;
25627;SDS011;40915;50.826;4.356;2022-11-12T09:22:52;9.25;;;3.72;;
25627;SDS011;40915;50.826;4.356;2022-11-12T09:25:18;10.30;;;3.47;;
25627;SDS011;40915;50.826;4.356;2022-11-12T09:27:44;4.20;;;2.92;;
25627;SDS011;40915;50.826;4.356;2022-11-12T09:30:10;3.58;;;2.65;;
25627;SDS011;40915;50.826;4.356;2022-11-12T09:32:36;9.02;;;2.90;;
25627;SDS011;40915;50.826;4.356;2022-11-12T09:35:02;6.82;;;3.35;;
25627;SDS011;40915;50.826;4.356;2022-11-12T09:37:28;5.40;;;3.17;;
25627;SDS011;40915;50.826;4.356;2022-11-12T09:39:57;5.88;;;3.35;;
25627;SDS011;40915;50.826;4.356;2022-11-12T09:42:23;4.93;;;2.90;;
25627;SDS011;40915;50.826;4.356;2022-11-12T09:44:59;5.35;;;3.17;;
25627;SDS011;40915;50.826;4.356;2022-11-12T09:47:49;6.50;;;3.75;;
25627;SDS011;40915;50.826;4.356;2022-11-12T09:53:02;8.20;;;3.85;;
25627;SDS011;40915;50.826;4.356;2022-11-12T09:55:37;8.85;;;3.47;;
25627;SDS011;40915;50.826;4.356;2022-11-12T09:58:11;7.68;;;3.83;;
25627;SDS011;40915;50.826;4.356;2022-11-12T10:00:39;7.97;;;4.10;;
25627;SDS011;40915;50.826;4.356;2022-11-12T10:06:14;6.35;;;3.80;;
25627;SDS011;40915;50.826;4.356;2022-11-12T10:24:24;5.88;;;3.25;;
25627;SDS011;40915;50.826;4.356;2022-11-12T10:26:55;7.85;;;3.88;;
25627;SDS011;40915;50.826;4.356;2022-11-12T10:29:33;4.57;;;3.70;;
25627;SDS011;40915;50.826;4.356;2022-11-12T10:32:03;5.20;;;3.90;;
25627;SDS011;40915;50.826;4.356;2022-11-12T10:34:29;6.65;;;4.20;;
25627;SDS011;40915;50.826;4.356;2022-11-12T10:36:56;11.43;;;5.45;;
25627;SDS011;40915;50.826;4.356;2022-11-12T10:39:45;6.35;;;3.80;;
25627;SDS011;40915;50.826;4.356;2022-11-12T10:42:12;8.00;;;4.30;;
25627;SDS011;40915;50.826;4.356;2022-11-12T10:44:40;10.27;;;3.63;;
25627;SDS011;40915;50.826;4.356;2022-11-12T10:52:54;10.50;;;3.85;;
25627;SDS011;40915;50.826;4.356;2022-11-12T10:55:25;8.32;;;4.68;;
25627;SDS011;40915;50.826;4.356;2022-11-12T10:58:10;6.38;;;3.97;;
25627;SDS011;40915;50.826;4.356;2022-11-12T11:00:54;7.38;;;4.20;;
25627;SDS011;40915;50.826;4.356;2022-11-12T11:03:26;5.55;;;3.80;;
25627;SDS011;40915;50.826;4.356;2022-11-12T11:05:58;5.43;;;3.67;;
25627;SDS011;40915;50.826;4.356;2022-11-12T11:08:42;5.85;;;4.20;;
25627;SDS011;40915;50.826;4.356;2022-11-12T11:11:15;6.78;;;3.85;;
25627;SDS011;40915;50.826;4.356;2022-11-12T11:13:43;12.77;;;4.30;;
25627;SDS011;40915;50.826;4.356;2022-11-12T11:16:15;10.52;;;4.30;;
25627;SDS011;40915;50.826;4.356;2022-11-12T11:18:44;5.82;;;3.47;;
25627;SDS011;40915;50.826;4.356;2022-11-12T11:29:18;9.48;;;4.10;;
25627;SDS011;40915;50.826;4.356;2022-11-12T11:31:58;8.65;;;4.35;;
25627;SDS011;40915;50.826;4.356;2022-11-12T11:39:37;5.70;;;3.72;;
25627;SDS011;40915;50.826;4.356;2022-11-12T11:42:15;6.07;;;3.60;;
25627;SDS011;40915;50.826;4.356;2022-11-12T11:49:49;6.32;;;3.95;;
25627;SDS011;40915;50.826;4.356;2022-11-12T11:55:00;8.15;;;3.80;;
25627;SDS011;40915;50.826;4.356;2022-11-12T11:57:35;4.97;;;4.10;;
25627;SDS011;40915;50.826;4.356;2022-11-12T12:00:10;7.05;;;4.30;;
25627;SDS011;40915;50.826;4.356;2022-11-12T12:10:25;6.45;;;4.32;;
25627;SDS011;40915;50.826;4.356;2022-11-12T12:12:56;7.45;;;4.45;;
25627;SDS011;40915;50.826;4.356;2022-11-12T12:20:53;8.32;;;4.18;;
25627;SDS011;40915;50.826;4.356;2022-11-12T12:26:19;7.63;;;4.50;;
25627;SDS011;40915;50.826;4.356;2022-11-12T12:28:54;8.48;;;4.45;;
25627;SDS011;40915;50.826;4.356;2022-11-12T12:31:23;7.00;;;4.28;;
25627;SDS011;40915;50.826;4.356;2022-11-12T12:33:51;7.47;;;4.75;;
25627;SDS011;40915;50.826;4.356;2022-11-12T12:36:26;6.43;;;4.28;;
25627;SDS011;40915;50.826;4.356;2022-11-12T12:41:57;7.75;;;4.40;;
25627;SDS011;40915;50.826;4.356;2022-11-12T12:44:25;7.05;;;4.57;;
25627;SDS011;40915;50.826;4.356;2022-11-12T12:47:11;6.55;;;4.15;;
25627;SDS011;40915;50.826;4.356;2022-11-12T12:49:38;6.43;;;4.10;;
25627;SDS011;40915;50.826;4.356;2022-11-12T12:52:04;6.70;;;3.90;;
25627;SDS011;40915;50.826;4.356;2022-11-12T12:57:01;5.65;;;4.22;;
25627;SDS011;40915;50.826;4.356;2022-11-12T12:59:27;5.22;;;3.88;;
25627;SDS011;40915;50.826;4.356;2022-11-12T13:01:57;8.95;;;3.88;;
25627;SDS011;40915;50.826;4.356;2022-11-12T13:07:09;7.75;;;3.90;;
25627;SDS011;40915;50.826;4.356;2022-11-12T13:09:35;14.60;;;4.47;;
25627;SDS011;40915;50.826;4.356;2022-11-12T13:12:01;7.13;;;3.47;;
25627;SDS011;40915;50.826;4.356;2022-11-12T13:19:25;13.02;;;4.72;;
25627;SDS011;40915;50.826;4.356;2022-11-12T13:22:21;6.80;;;3.95;;
25627;SDS011;40915;50.826;4.356;2022-11-12T13:35:18;6.45;;;3.70;;
25627;SDS011;40915;50.826;4.356;2022-11-12T13:40:12;4.95;;;3.38;;
25627;SDS011;40915;50.826;4.356;2022-11-12T13:42:39;10.30;;;3.75;;
25627;SDS011;40915;50.826;4.356;2022-11-12T13:45:15;7.20;;;3.83;;
25627;SDS011;40915;50.826;4.356;2022-11-12T13:47:41;6.55;;;3.95;;
25627;SDS011;40915;50.826;4.356;2022-11-12T13:50:08;11.68;;;4.57;;
25627;SDS011;40915;50.826;4.356;2022-11-12T13:52:38;7.22;;;3.78;;
25627;SDS011;40915;50.826;4.356;2022-11-12T13:57:40;10.05;;;3.22;;
25627;SDS011;40915;50.826;4.356;2022-11-12T14:02:47;9.25;;;3.65;;
25627;SDS011;40915;50.826;4.356;2022-11-12T14:05:17;5.10;;;3.20;;
25627;SDS011;40915;50.826;4.356;2022-11-12T14:10:42;6.75;;;3.72;;
25627;SDS011;40915;50.826;4.356;2022-11-12T14:13:35;11.90;;;4.47;;
25627;SDS011;40915;50.826;4.356;2022-11-12T14:21:19;7.10;;;3.20;;
25627;SDS011;40915;50.826;4.356;2022-11-12T14:23:45;7.75;;;3.85;;
25627;SDS011;40915;50.826;4.356;2022-11-12T14:26:13;7.97;;;3.88;;
25627;SDS011;40915;50.826;4.356;2022-11-12T14:28:57;6.00;;;3.65;;
25627;SDS011;40915;50.826;4.356;2022-11-12T14:31:23;7.32;;;3.88;;
25627;SDS011;40915;50.826;4.356;2022-11-12T14:33:50;5.28;;;3.22;;
25627;SDS011;40915;50.826;4.356;2022-11-12T14:36:16;6.10;;;3.85;;
25627;SDS011;40915;50.826;4.356;2022-11-12T14:38:47;6.95;;;3.80;;
25627;SDS011;40915;50.826;4.356;2022-11-12T14:41:23;6.93;;;3.60;;
25627;SDS011;40915;50.826;4.356;2022-11-12T14:44:00;12.57;;;4.40;;
25627;SDS011;40915;50.826;4.356;2022-11-12T14:46:32;7.53;;;3.33;;
25627;SDS011;40915;50.826;4.356;2022-11-12T14:49:24;5.63;;;3.03;;
25627;SDS011;40915;50.826;4.356;2022-11-12T14:51:53;6.95;;;3.63;;
25627;SDS011;40915;50.826;4.356;2022-11-12T14:54:30;8.52;;;3.72;;
25627;SDS011;40915;50.826;4.356;2022-11-12T14:56:56;5.93;;;3.38;;
25627;SDS011;40915;50.826;4.356;2022-11-12T14:59:23;10.20;;;4.25;;
25627;SDS011;40915;50.826;4.356;2022-11-12T15:04:34;6.30;;;3.83;;
25627;SDS011;40915;50.826;4.356;2022-11-12T15:07:01;6.60;;;3.95;;
25627;SDS011;40915;50.826;4.356;2022-11-12T15:09:34;9.10;;;4.20;;
25627;SDS011;40915;50.826;4.356;2022-11-12T15:12:01;7.40;;;3.13;;
25627;SDS011;40915;50.826;4.356;2022-11-12T15:14:28;9.68;;;5.32;;
25627;SDS011;40915;50.826;4.356;2022-11-12T15:16:54;8.73;;;5.30;;
25627;SDS011;40915;50.826;4.356;2022-11-12T15:19:23;7.65;;;5.10;;
25627;SDS011;40915;50.826;4.356;2022-11-12T15:21:59;6.65;;;4.50;;
25627;SDS011;40915;50.826;4.356;2022-11-12T15:26:52;8.93;;;4.03;;
25627;SDS011;40915;50.826;4.356;2022-11-12T15:29:53;7.57;;;4.00;;
25627;SDS011;40915;50.826;4.356;2022-11-12T15:37:03;7.20;;;3.70;;
25627;SDS011;40915;50.826;4.356;2022-11-12T15:39:30;5.78;;;3.72;;
25627;SDS011;40915;50.826;4.356;2022-11-12T15:42:01;7.15;;;4.32;;
25627;SDS011;40915;50.826;4.356;2022-11-12T15:44:29;9.52;;;4.78;;
25627;SDS011;40915;50.826;4.356;2022-11-12T15:46:56;8.43;;;4.85;;
25627;SDS011;40915;50.826;4.356;2022-11-12T15:49:22;8.88;;;5.03;;
25627;SDS011;40915;50.826;4.356;2022-11-12T15:51:49;9.55;;;4.75;;
25627;SDS011;40915;50.826;4.356;2022-11-12T15:54:14;7.60;;;4.35;;
25627;SDS011;40915;50.826;4.356;2022-11-12T15:56:40;12.93;;;6.50;;
25627;SDS011;40915;50.826;4.356;2022-11-12T15:59:08;11.38;;;5.45;;
25627;SDS011;40915;50.826;4.356;2022-11-12T16:01:34;9.93;;;5.85;;
25627;SDS011;40915;50.826;4.356;2022-11-12T16:04:00;6.95;;;4.45;;
25627;SDS011;40915;50.826;4.356;2022-11-12T16:06:26;12.07;;;5.78;;
25627;SDS011;40915;50.826;4.356;2022-11-12T16:08:52;9.80;;;5.47;;
25627;SDS011;40915;50.826;4.356;2022-11-12T16:11:18;10.55;;;5.32;;
25627;SDS011;40915;50.826;4.356;2022-11-12T16:14:00;9.73;;;5.07;;
25627;SDS011;40915;50.826;4.356;2022-11-12T16:16:26;12.02;;;5.18;;
25627;SDS011;40915;50.826;4.356;2022-11-12T16:18:52;8.60;;;5.65;;
25627;SDS011;40915;50.826;4.356;2022-11-12T16:21:18;8.73;;;5.28;;
25627;SDS011;40915;50.826;4.356;2022-11-12T16:23:44;7.03;;;5.10;;
25627;SDS011;40915;50.826;4.356;2022-11-12T16:26:11;9.18;;;6.05;;
25627;SDS011;40915;50.826;4.356;2022-11-12T16:28:39;10.60;;;6.20;;
25627;SDS011;40915;50.826;4.356;2022-11-12T16:31:05;11.90;;;5.90;;
25627;SDS011;40915;50.826;4.356;2022-11-12T16:33:31;8.63;;;5.65;;
25627;SDS011;40915;50.826;4.356;2022-11-12T16:35:57;11.43;;;6.70;;
25627;SDS011;40915;50.826;4.356;2022-11-12T16:38:24;7.78;;;5.30;;
25627;SDS011;40915;50.826;4.356;2022-11-12T16:40:50;11.75;;;6.35;;
25627;SDS011;40915;50.826;4.356;2022-11-12T16:43:16;11.18;;;6.57;;
25627;SDS011;40915;50.826;4.356;2022-11-12T16:45:42;8.73;;;6.00;;
25627;SDS011;40915;50.826;4.356;2022-11-12T16:48:10;13.80;;;6.65;;
25627;SDS011;40915;50.826;4.356;2022-11-12T16:50:37;9.40;;;6.95;;
25627;SDS011;40915;50.826;4.356;2022-11-12T16:53:03;8.98;;;5.55;;